sensor_id;sensor_type;location;lat;lon;timestamp;P1;durP1;ratioP1;P2;durP2;ratioP2
20697;SDS011;10508;50.956;4.640;2023-06-14T00:00:43;12.90;;;4.60;;
20697;SDS011;10508;50.956;4.640;2023-06-14T00:03:10;8.48;;;5.28;;
20697;SDS011;10508;50.956;4.640;2023-06-14T00:05:37;7.00;;;4.68;;
20697;SDS011;10508;50.956;4.640;2023-06-14T00:08:08;6.78;;;4.32;;
20697;SDS011;10508;50.956;4.640;2023-06-14T00:10:35;6.68;;;4.75;;
20697;SDS011;10508;50.956;4.640;2023-06-14T00:13:04;7.25;;;4.93;;
20697;SDS011;10508;50.956;4.640;2023-06-14T00:15:32;6.70;;;4.43;;
20697;SDS011;10508;50.956;4.640;2023-06-14T00:17:58;10.85;;;5.28;;
20697;SDS011;10508;50.956;4.640;2023-06-14T00:20:27;9.07;;;4.53;;
20697;SDS011;10508;50.956;4.640;2023-06-14T00:22:54;11.70;;;5.25;;
20697;SDS011;10508;50.956;4.640;2023-06-14T00:25:21;7.90;;;4.88;;
20697;SDS011;10508;50.956;4.640;2023-06-14T00:27:48;8.32;;;4.30;;
20697;SDS011;10508;50.956;4.640;2023-06-14T00:30:14;10.23;;;4.97;;
20697;SDS011;10508;50.956;4.640;2023-06-14T00:32:40;8.07;;;5.03;;
20697;SDS011;10508;50.956;4.640;2023-06-14T00:35:08;7.85;;;5.13;;
20697;SDS011;10508;50.956;4.640;2023-06-14T00:37:34;8.27;;;5.28;;
20697;SDS011;10508;50.956;4.640;2023-06-14T00:40:00;12.05;;;4.90;;
20697;SDS011;10508;50.956;4.640;2023-06-14T00:42:26;9.70;;;5.15;;
20697;SDS011;10508;50.956;4.640;2023-06-14T00:44:53;10.98;;;4.78;;
20697;SDS011;10508;50.956;4.640;2023-06-14T00:47:19;9.23;;;4.53;;
20697;SDS011;10508;50.956;4.640;2023-06-14T00:49:46;7.15;;;4.65;;
20697;SDS011;10508;50.956;4.640;2023-06-14T00:52:13;10.98;;;5.90;;
20697;SDS011;10508;50.956;4.640;2023-06-14T00:54:40;8.90;;;5.50;;
20697;SDS011;10508;50.956;4.640;2023-06-14T00:57:06;10.63;;;5.05;;
20697;SDS011;10508;50.956;4.640;2023-06-14T00:59:33;12.40;;;5.47;;
20697;SDS011;10508;50.956;4.640;2023-06-14T01:01:59;6.38;;;4.68;;
20697;SDS011;10508;50.956;4.640;2023-06-14T01:04:38;8.43;;;4.88;;
20697;SDS011;10508;50.956;4.640;2023-06-14T01:12:24;10.90;;;5.22;;
20697;SDS011;10508;50.956;4.640;2023-06-14T01:14:52;11.13;;;5.30;;
20697;SDS011;10508;50.956;4.640;2023-06-14T01:17:20;8.10;;;4.82;;
20697;SDS011;10508;50.956;4.640;2023-06-14T01:19:48;8.65;;;4.85;;
20697;SDS011;10508;50.956;4.640;2023-06-14T01:22:14;8.73;;;5.50;;
20697;SDS011;10508;50.956;4.640;2023-06-14T01:24:40;8.48;;;5.22;;
20697;SDS011;10508;50.956;4.640;2023-06-14T01:27:10;9.02;;;5.20;;
20697;SDS011;10508;50.956;4.640;2023-06-14T01:29:36;7.60;;;5.03;;
20697;SDS011;10508;50.956;4.640;2023-06-14T01:32:03;7.35;;;4.68;;
20697;SDS011;10508;50.956;4.640;2023-06-14T01:34:30;8.02;;;5.13;;
20697;SDS011;10508;50.956;4.640;2023-06-14T01:36:56;14.10;;;6.00;;
20697;SDS011;10508;50.956;4.640;2023-06-14T01:39:23;8.98;;;4.95;;
20697;SDS011;10508;50.956;4.640;2023-06-14T01:41:49;12.27;;;5.13;;
20697;SDS011;10508;50.956;4.640;2023-06-14T01:44:16;8.27;;;4.97;;
20697;SDS011;10508;50.956;4.640;2023-06-14T01:46:43;11.77;;;5.38;;
20697;SDS011;10508;50.956;4.640;2023-06-14T01:49:10;9.73;;;5.35;;
20697;SDS011;10508;50.956;4.640;2023-06-14T01:51:36;8.48;;;5.25;;
20697;SDS011;10508;50.956;4.640;2023-06-14T01:54:02;9.60;;;4.88;;
20697;SDS011;10508;50.956;4.640;2023-06-14T01:56:28;12.55;;;5.53;;
20697;SDS011;10508;50.956;4.640;2023-06-14T01:58:54;8.05;;;5.45;;
20697;SDS011;10508;50.956;4.640;2023-06-14T02:01:21;10.68;;;5.25;;
20697;SDS011;10508;50.956;4.640;2023-06-14T02:03:47;7.20;;;4.80;;
20697;SDS011;10508;50.956;4.640;2023-06-14T02:06:14;7.80;;;5.55;;
20697;SDS011;10508;50.956;4.640;2023-06-14T02:08:41;8.55;;;5.43;;
20697;SDS011;10508;50.956;4.640;2023-06-14T02:11:07;7.95;;;4.80;;
20697;SDS011;10508;50.956;4.640;2023-06-14T02:13:33;7.00;;;4.93;;
20697;SDS011;10508;50.956;4.640;2023-06-14T02:16:00;8.00;;;4.88;;
20697;SDS011;10508;50.956;4.640;2023-06-14T02:18:26;8.80;;;5.30;;
20697;SDS011;10508;50.956;4.640;2023-06-14T02:20:52;12.45;;;5.47;;
20697;SDS011;10508;50.956;4.640;2023-06-14T02:23:18;8.52;;;5.32;;
20697;SDS011;10508;50.956;4.640;2023-06-14T02:25:44;13.57;;;5.72;;
20697;SDS011;10508;50.956;4.640;2023-06-14T02:28:11;11.30;;;5.45;;
20697;SDS011;10508;50.956;4.640;2023-06-14T02:30:37;10.27;;;5.63;;
20697;SDS011;10508;50.956;4.640;2023-06-14T02:33:03;13.02;;;5.75;;
20697;SDS011;10508;50.956;4.640;2023-06-14T02:35:30;9.30;;;5.63;;
20697;SDS011;10508;50.956;4.640;2023-06-14T02:37:56;11.15;;;5.75;;
20697;SDS011;10508;50.956;4.640;2023-06-14T02:40:22;8.40;;;5.20;;
20697;SDS011;10508;50.956;4.640;2023-06-14T02:42:48;11.48;;;6.07;;
20697;SDS011;10508;50.956;4.640;2023-06-14T02:45:14;7.68;;;5.60;;
20697;SDS011;10508;50.956;4.640;2023-06-14T02:47:40;10.65;;;5.28;;
20697;SDS011;10508;50.956;4.640;2023-06-14T02:50:07;12.45;;;6.28;;
20697;SDS011;10508;50.956;4.640;2023-06-14T02:52:33;12.25;;;5.95;;
20697;SDS011;10508;50.956;4.640;2023-06-14T02:54:59;10.90;;;5.88;;
20697;SDS011;10508;50.956;4.640;2023-06-14T02:57:25;11.38;;;5.10;;
20697;SDS011;10508;50.956;4.640;2023-06-14T02:59:51;8.80;;;5.47;;
20697;SDS011;10508;50.956;4.640;2023-06-14T03:02:17;11.13;;;5.55;;
20697;SDS011;10508;50.956;4.640;2023-06-14T03:04:43;7.75;;;5.38;;
20697;SDS011;10508;50.956;4.640;2023-06-14T03:07:11;10.10;;;6.03;;
20697;SDS011;10508;50.956;4.640;2023-06-14T03:09:38;17.23;;;7.10;;
20697;SDS011;10508;50.956;4.640;2023-06-14T03:12:05;20.73;;;6.00;;
20697;SDS011;10508;50.956;4.640;2023-06-14T03:14:32;8.85;;;6.28;;
20697;SDS011;10508;50.956;4.640;2023-06-14T03:16:58;10.30;;;5.80;;
20697;SDS011;10508;50.956;4.640;2023-06-14T03:19:25;10.82;;;6.07;;
20697;SDS011;10508;50.956;4.640;2023-06-14T03:21:51;12.40;;;5.72;;
20697;SDS011;10508;50.956;4.640;2023-06-14T03:24:18;10.10;;;5.88;;
20697;SDS011;10508;50.956;4.640;2023-06-14T03:26:44;11.95;;;6.28;;
20697;SDS011;10508;50.956;4.640;2023-06-14T03:29:11;13.18;;;5.95;;
20697;SDS011;10508;50.956;4.640;2023-06-14T03:31:41;15.75;;;6.45;;
20697;SDS011;10508;50.956;4.640;2023-06-14T03:34:07;11.85;;;5.88;;
20697;SDS011;10508;50.956;4.640;2023-06-14T03:36:33;9.40;;;5.85;;
20697;SDS011;10508;50.956;4.640;2023-06-14T03:38:59;9.75;;;5.85;;
20697;SDS011;10508;50.956;4.640;2023-06-14T03:41:25;11.60;;;6.13;;
20697;SDS011;10508;50.956;4.640;2023-06-14T03:43:51;13.43;;;6.05;;
20697;SDS011;10508;50.956;4.640;2023-06-14T03:46:17;10.45;;;5.72;;
20697;SDS011;10508;50.956;4.640;2023-06-14T03:48:43;10.88;;;5.90;;
20697;SDS011;10508;50.956;4.640;2023-06-14T03:51:10;13.52;;;6.18;;
20697;SDS011;10508;50.956;4.640;2023-06-14T03:53:37;20.85;;;7.03;;
20697;SDS011;10508;50.956;4.640;2023-06-14T03:56:03;12.05;;;6.18;;
20697;SDS011;10508;50.956;4.640;2023-06-14T03:58:29;9.90;;;6.07;;
20697;SDS011;10508;50.956;4.640;2023-06-14T04:00:55;15.10;;;6.32;;
20697;SDS011;10508;50.956;4.640;2023-06-14T04:03:21;10.18;;;5.95;;
20697;SDS011;10508;50.956;4.640;2023-06-14T04:05:54;12.00;;;6.20;;
20697;SDS011;10508;50.956;4.640;2023-06-14T04:08:21;9.48;;;5.88;;
20697;SDS011;10508;50.956;4.640;2023-06-14T04:10:48;8.15;;;5.68;;
20697;SDS011;10508;50.956;4.640;2023-06-14T04:13:14;8.75;;;6.32;;
20697;SDS011;10508;50.956;4.640;2023-06-14T04:15:40;11.35;;;5.93;;
20697;SDS011;10508;50.956;4.640;2023-06-14T04:18:10;16.52;;;6.28;;
20697;SDS011;10508;50.956;4.640;2023-06-14T04:20:36;12.18;;;6.13;;
20697;SDS011;10508;50.956;4.640;2023-06-14T04:23:13;13.65;;;6.82;;
20697;SDS011;10508;50.956;4.640;2023-06-14T04:25:40;12.00;;;6.72;;
20697;SDS011;10508;50.956;4.640;2023-06-14T04:28:09;10.00;;;6.25;;
20697;SDS011;10508;50.956;4.640;2023-06-14T04:30:36;14.85;;;6.78;;
20697;SDS011;10508;50.956;4.640;2023-06-14T04:33:03;11.23;;;6.40;;
20697;SDS011;10508;50.956;4.640;2023-06-14T04:35:31;11.98;;;6.60;;
20697;SDS011;10508;50.956;4.640;2023-06-14T04:37:57;11.07;;;6.13;;
20697;SDS011;10508;50.956;4.640;2023-06-14T04:40:24;15.65;;;6.32;;
20697;SDS011;10508;50.956;4.640;2023-06-14T04:42:50;15.07;;;6.88;;
20697;SDS011;10508;50.956;4.640;2023-06-14T04:45:16;12.25;;;6.68;;
20697;SDS011;10508;50.956;4.640;2023-06-14T04:47:42;29.77;;;8.23;;
20697;SDS011;10508;50.956;4.640;2023-06-14T04:50:09;11.07;;;7.25;;
20697;SDS011;10508;50.956;4.640;2023-06-14T04:52:36;13.63;;;7.80;;
20697;SDS011;10508;50.956;4.640;2023-06-14T04:55:02;17.63;;;7.55;;
20697;SDS011;10508;50.956;4.640;2023-06-14T04:57:28;9.15;;;6.05;;
20697;SDS011;10508;50.956;4.640;2023-06-14T04:59:56;13.23;;;6.57;;
20697;SDS011;10508;50.956;4.640;2023-06-14T05:02:23;11.45;;;6.85;;
20697;SDS011;10508;50.956;4.640;2023-06-14T05:04:49;12.05;;;6.63;;
20697;SDS011;10508;50.956;4.640;2023-06-14T05:07:15;17.23;;;7.60;;
20697;SDS011;10508;50.956;4.640;2023-06-14T05:09:42;13.15;;;6.47;;
20697;SDS011;10508;50.956;4.640;2023-06-14T05:12:08;11.10;;;6.03;;
20697;SDS011;10508;50.956;4.640;2023-06-14T05:14:34;13.15;;;5.78;;
20697;SDS011;10508;50.956;4.640;2023-06-14T05:17:01;14.18;;;6.63;;
20697;SDS011;10508;50.956;4.640;2023-06-14T05:19:27;27.42;;;7.32;;
20697;SDS011;10508;50.956;4.640;2023-06-14T05:21:53;10.10;;;5.43;;
20697;SDS011;10508;50.956;4.640;2023-06-14T05:24:19;11.55;;;6.45;;
20697;SDS011;10508;50.956;4.640;2023-06-14T05:26:46;15.30;;;6.50;;
20697;SDS011;10508;50.956;4.640;2023-06-14T05:29:12;13.57;;;5.97;;
20697;SDS011;10508;50.956;4.640;2023-06-14T05:31:38;13.10;;;6.10;;
20697;SDS011;10508;50.956;4.640;2023-06-14T05:34:04;14.75;;;7.20;;
20697;SDS011;10508;50.956;4.640;2023-06-14T05:36:30;16.67;;;6.93;;
20697;SDS011;10508;50.956;4.640;2023-06-14T05:38:56;12.77;;;6.60;;
20697;SDS011;10508;50.956;4.640;2023-06-14T05:41:27;13.10;;;6.80;;
20697;SDS011;10508;50.956;4.640;2023-06-14T05:43:54;16.92;;;6.38;;
20697;SDS011;10508;50.956;4.640;2023-06-14T05:46:20;11.73;;;6.15;;
20697;SDS011;10508;50.956;4.640;2023-06-14T05:48:50;11.63;;;7.15;;
20697;SDS011;10508;50.956;4.640;2023-06-14T05:51:17;12.98;;;5.93;;
20697;SDS011;10508;50.956;4.640;2023-06-14T05:53:48;13.63;;;7.85;;
20697;SDS011;10508;50.956;4.640;2023-06-14T05:56:15;11.73;;;6.95;;
20697;SDS011;10508;50.956;4.640;2023-06-14T05:58:42;11.57;;;6.55;;
20697;SDS011;10508;50.956;4.640;2023-06-14T06:01:09;11.48;;;6.65;;
20697;SDS011;10508;50.956;4.640;2023-06-14T06:03:35;11.60;;;6.25;;
20697;SDS011;10508;50.956;4.640;2023-06-14T06:06:01;13.40;;;6.40;;
20697;SDS011;10508;50.956;4.640;2023-06-14T06:08:28;9.13;;;5.57;;
20697;SDS011;10508;50.956;4.640;2023-06-14T06:10:54;10.10;;;6.20;;
20697;SDS011;10508;50.956;4.640;2023-06-14T06:13:20;11.93;;;5.97;;
20697;SDS011;10508;50.956;4.640;2023-06-14T06:15:46;8.70;;;5.65;;
20697;SDS011;10508;50.956;4.640;2023-06-14T06:18:12;13.40;;;6.60;;
20697;SDS011;10508;50.956;4.640;2023-06-14T06:20:38;10.95;;;6.20;;
20697;SDS011;10508;50.956;4.640;2023-06-14T06:23:04;12.25;;;6.15;;
20697;SDS011;10508;50.956;4.640;2023-06-14T06:25:30;11.02;;;5.30;;
20697;SDS011;10508;50.956;4.640;2023-06-14T06:27:56;10.73;;;5.85;;
20697;SDS011;10508;50.956;4.640;2023-06-14T06:30:23;15.23;;;5.95;;
20697;SDS011;10508;50.956;4.640;2023-06-14T06:32:49;11.73;;;5.47;;
20697;SDS011;10508;50.956;4.640;2023-06-14T06:35:15;11.40;;;5.55;;
20697;SDS011;10508;50.956;4.640;2023-06-14T06:37:41;10.65;;;5.68;;
20697;SDS011;10508;50.956;4.640;2023-06-14T06:40:08;7.90;;;5.30;;
20697;SDS011;10508;50.956;4.640;2023-06-14T06:42:34;8.13;;;5.05;;
20697;SDS011;10508;50.956;4.640;2023-06-14T06:45:00;10.82;;;5.90;;
20697;SDS011;10508;50.956;4.640;2023-06-14T06:47:26;8.38;;;6.05;;
20697;SDS011;10508;50.956;4.640;2023-06-14T06:49:52;15.20;;;6.07;;
20697;SDS011;10508;50.956;4.640;2023-06-14T06:52:18;14.38;;;5.72;;
20697;SDS011;10508;50.956;4.640;2023-06-14T06:54:45;10.95;;;5.70;;
20697;SDS011;10508;50.956;4.640;2023-06-14T06:57:11;8.05;;;4.93;;
20697;SDS011;10508;50.956;4.640;2023-06-14T06:59:37;14.75;;;5.95;;
20697;SDS011;10508;50.956;4.640;2023-06-14T07:02:03;8.85;;;5.68;;
20697;SDS011;10508;50.956;4.640;2023-06-14T07:04:30;15.10;;;5.63;;
20697;SDS011;10508;50.956;4.640;2023-06-14T07:06:56;10.55;;;5.68;;
20697;SDS011;10508;50.956;4.640;2023-06-14T07:09:22;9.48;;;5.35;;
20697;SDS011;10508;50.956;4.640;2023-06-14T07:11:49;11.02;;;5.15;;
20697;SDS011;10508;50.956;4.640;2023-06-14T07:14:15;12.70;;;5.43;;
20697;SDS011;10508;50.956;4.640;2023-06-14T07:16:41;9.80;;;5.10;;
20697;SDS011;10508;50.956;4.640;2023-06-14T07:19:08;9.60;;;4.80;;
20697;SDS011;10508;50.956;4.640;2023-06-14T07:21:35;14.73;;;5.38;;
20697;SDS011;10508;50.956;4.640;2023-06-14T07:24:04;12.70;;;5.70;;
20697;SDS011;10508;50.956;4.640;2023-06-14T07:26:31;13.18;;;6.32;;
20697;SDS011;10508;50.956;4.640;2023-06-14T07:28:57;10.93;;;5.32;;
20697;SDS011;10508;50.956;4.640;2023-06-14T07:31:23;7.47;;;5.18;;
20697;SDS011;10508;50.956;4.640;2023-06-14T07:33:50;12.02;;;5.38;;
20697;SDS011;10508;50.956;4.640;2023-06-14T07:36:16;12.70;;;5.75;;
20697;SDS011;10508;50.956;4.640;2023-06-14T07:38:42;12.30;;;5.93;;
20697;SDS011;10508;50.956;4.640;2023-06-14T07:41:09;16.90;;;5.28;;
20697;SDS011;10508;50.956;4.640;2023-06-14T07:43:35;12.57;;;5.47;;
20697;SDS011;10508;50.956;4.640;2023-06-14T07:46:01;11.27;;;5.57;;
20697;SDS011;10508;50.956;4.640;2023-06-14T07:48:27;6.72;;;4.85;;
20697;SDS011;10508;50.956;4.640;2023-06-14T07:50:53;8.98;;;4.57;;
20697;SDS011;10508;50.956;4.640;2023-06-14T07:53:20;10.82;;;4.82;;
20697;SDS011;10508;50.956;4.640;2023-06-14T07:55:46;8.25;;;5.43;;
20697;SDS011;10508;50.956;4.640;2023-06-14T07:58:13;15.85;;;5.55;;
20697;SDS011;10508;50.956;4.640;2023-06-14T08:00:40;8.00;;;4.50;;
20697;SDS011;10508;50.956;4.640;2023-06-14T08:03:06;11.05;;;5.43;;
20697;SDS011;10508;50.956;4.640;2023-06-14T08:05:32;9.65;;;5.03;;
20697;SDS011;10508;50.956;4.640;2023-06-14T08:07:59;7.05;;;4.95;;
20697;SDS011;10508;50.956;4.640;2023-06-14T08:10:25;9.55;;;5.50;;
20697;SDS011;10508;50.956;4.640;2023-06-14T08:12:51;10.52;;;5.47;;
20697;SDS011;10508;50.956;4.640;2023-06-14T08:15:17;7.10;;;5.03;;
20697;SDS011;10508;50.956;4.640;2023-06-14T08:17:43;14.48;;;5.22;;
20697;SDS011;10508;50.956;4.640;2023-06-14T08:20:10;16.48;;;4.93;;
20697;SDS011;10508;50.956;4.640;2023-06-14T08:22:36;11.60;;;5.15;;
20697;SDS011;10508;50.956;4.640;2023-06-14T08:25:02;10.45;;;5.38;;
20697;SDS011;10508;50.956;4.640;2023-06-14T08:27:29;8.38;;;5.47;;
20697;SDS011;10508;50.956;4.640;2023-06-14T08:29:55;11.32;;;5.40;;
20697;SDS011;10508;50.956;4.640;2023-06-14T08:32:21;8.82;;;4.43;;
20697;SDS011;10508;50.956;4.640;2023-06-14T08:34:47;7.20;;;4.68;;
20697;SDS011;10508;50.956;4.640;2023-06-14T08:37:13;12.02;;;4.97;;
20697;SDS011;10508;50.956;4.640;2023-06-14T08:39:39;9.52;;;5.35;;
20697;SDS011;10508;50.956;4.640;2023-06-14T08:42:05;9.15;;;4.85;;
20697;SDS011;10508;50.956;4.640;2023-06-14T08:44:31;9.82;;;5.10;;
20697;SDS011;10508;50.956;4.640;2023-06-14T08:46:58;10.90;;;5.35;;
20697;SDS011;10508;50.956;4.640;2023-06-14T08:49:25;8.45;;;5.28;;
20697;SDS011;10508;50.956;4.640;2023-06-14T08:51:57;8.75;;;4.90;;
20697;SDS011;10508;50.956;4.640;2023-06-14T08:54:23;12.70;;;5.18;;
20697;SDS011;10508;50.956;4.640;2023-06-14T08:56:52;7.35;;;4.57;;
20697;SDS011;10508;50.956;4.640;2023-06-14T08:59:18;9.25;;;4.90;;
20697;SDS011;10508;50.956;4.640;2023-06-14T09:01:46;7.60;;;4.45;;
20697;SDS011;10508;50.956;4.640;2023-06-14T09:04:12;8.75;;;4.63;;
20697;SDS011;10508;50.956;4.640;2023-06-14T09:06:39;6.85;;;4.30;;
20697;SDS011;10508;50.956;4.640;2023-06-14T09:09:05;7.00;;;4.43;;
20697;SDS011;10508;50.956;4.640;2023-06-14T09:11:32;7.13;;;4.45;;
20697;SDS011;10508;50.956;4.640;2023-06-14T09:13:58;8.88;;;4.85;;
20697;SDS011;10508;50.956;4.640;2023-06-14T09:16:25;7.40;;;5.25;;
20697;SDS011;10508;50.956;4.640;2023-06-14T09:18:51;7.70;;;4.78;;
20697;SDS011;10508;50.956;4.640;2023-06-14T09:21:17;7.22;;;4.95;;
20697;SDS011;10508;50.956;4.640;2023-06-14T09:23:44;10.10;;;4.70;;
20697;SDS011;10508;50.956;4.640;2023-06-14T09:26:11;7.07;;;4.43;;
20697;SDS011;10508;50.956;4.640;2023-06-14T09:28:41;7.38;;;4.55;;
20697;SDS011;10508;50.956;4.640;2023-06-14T09:31:07;10.98;;;4.10;;
20697;SDS011;10508;50.956;4.640;2023-06-14T09:33:34;7.50;;;4.88;;
20697;SDS011;10508;50.956;4.640;2023-06-14T09:36:00;8.40;;;4.00;;
20697;SDS011;10508;50.956;4.640;2023-06-14T09:38:26;12.48;;;4.78;;
20697;SDS011;10508;50.956;4.640;2023-06-14T09:40:55;5.55;;;3.95;;
20697;SDS011;10508;50.956;4.640;2023-06-14T09:43:22;7.43;;;3.92;;
20697;SDS011;10508;50.956;4.640;2023-06-14T09:45:48;13.98;;;5.55;;
20697;SDS011;10508;50.956;4.640;2023-06-14T09:48:18;6.55;;;4.00;;
20697;SDS011;10508;50.956;4.640;2023-06-14T09:50:45;6.97;;;3.47;;
20697;SDS011;10508;50.956;4.640;2023-06-14T09:53:14;5.38;;;3.70;;
20697;SDS011;10508;50.956;4.640;2023-06-14T09:55:41;12.38;;;3.53;;
20697;SDS011;10508;50.956;4.640;2023-06-14T09:58:26;6.45;;;3.83;;
20697;SDS011;10508;50.956;4.640;2023-06-14T10:00:54;7.85;;;3.75;;
20697;SDS011;10508;50.956;4.640;2023-06-14T10:03:29;6.03;;;3.50;;
20697;SDS011;10508;50.956;4.640;2023-06-14T10:05:57;5.50;;;3.60;;
20697;SDS011;10508;50.956;4.640;2023-06-14T10:08:27;6.05;;;3.97;;
20697;SDS011;10508;50.956;4.640;2023-06-14T10:10:55;8.63;;;3.60;;
20697;SDS011;10508;50.956;4.640;2023-06-14T10:13:21;14.95;;;3.53;;
20697;SDS011;10508;50.956;4.640;2023-06-14T10:16:05;6.88;;;3.70;;
20697;SDS011;10508;50.956;4.640;2023-06-14T10:18:36;7.28;;;3.65;;
20697;SDS011;10508;50.956;4.640;2023-06-14T10:21:49;11.30;;;3.38;;
20697;SDS011;10508;50.956;4.640;2023-06-14T10:23:56;5.65;;;3.42;;
20697;SDS011;10508;50.956;4.640;2023-06-14T10:26:24;8.27;;;3.88;;
20697;SDS011;10508;50.956;4.640;2023-06-14T10:28:58;5.38;;;3.25;;
20697;SDS011;10508;50.956;4.640;2023-06-14T10:31:39;9.88;;;4.25;;
20697;SDS011;10508;50.956;4.640;2023-06-14T10:34:12;8.07;;;3.15;;
20697;SDS011;10508;50.956;4.640;2023-06-14T10:36:40;9.80;;;3.92;;
20697;SDS011;10508;50.956;4.640;2023-06-14T10:39:08;7.65;;;3.83;;
20697;SDS011;10508;50.956;4.640;2023-06-14T10:41:36;8.00;;;3.45;;
20697;SDS011;10508;50.956;4.640;2023-06-14T10:46:53;4.28;;;2.97;;
20697;SDS011;10508;50.956;4.640;2023-06-14T10:49:20;6.93;;;3.50;;
20697;SDS011;10508;50.956;4.640;2023-06-14T10:51:49;5.80;;;3.65;;
20697;SDS011;10508;50.956;4.640;2023-06-14T10:54:16;4.38;;;2.75;;
20697;SDS011;10508;50.956;4.640;2023-06-14T10:56:46;8.00;;;3.50;;
20697;SDS011;10508;50.956;4.640;2023-06-14T10:59:13;4.68;;;3.08;;
20697;SDS011;10508;50.956;4.640;2023-06-14T11:04:21;5.65;;;3.45;;
20697;SDS011;10508;50.956;4.640;2023-06-14T11:06:48;5.07;;;3.10;;
20697;SDS011;10508;50.956;4.640;2023-06-14T11:09:41;4.38;;;3.00;;
20697;SDS011;10508;50.956;4.640;2023-06-14T11:12:09;5.00;;;2.80;;
20697;SDS011;10508;50.956;4.640;2023-06-14T11:14:37;9.25;;;3.20;;
20697;SDS011;10508;50.956;4.640;2023-06-14T11:17:04;6.32;;;3.22;;
20697;SDS011;10508;50.956;4.640;2023-06-14T11:19:30;8.30;;;3.25;;
20697;SDS011;10508;50.956;4.640;2023-06-14T11:21:56;7.05;;;3.00;;
20697;SDS011;10508;50.956;4.640;2023-06-14T11:24:22;3.97;;;2.80;;
20697;SDS011;10508;50.956;4.640;2023-06-14T11:26:49;5.10;;;2.63;;
20697;SDS011;10508;50.956;4.640;2023-06-14T11:29:15;10.32;;;3.95;;
20697;SDS011;10508;50.956;4.640;2023-06-14T11:31:45;4.70;;;2.80;;
20697;SDS011;10508;50.956;4.640;2023-06-14T11:34:11;4.03;;;2.58;;
20697;SDS011;10508;50.956;4.640;2023-06-14T11:36:38;12.05;;;2.92;;
20697;SDS011;10508;50.956;4.640;2023-06-14T11:39:04;4.50;;;2.75;;
20697;SDS011;10508;50.956;4.640;2023-06-14T11:41:32;6.32;;;2.60;;
20697;SDS011;10508;50.956;4.640;2023-06-14T11:43:59;6.68;;;2.60;;
20697;SDS011;10508;50.956;4.640;2023-06-14T11:46:26;8.75;;;3.20;;
20697;SDS011;10508;50.956;4.640;2023-06-14T11:48:52;5.43;;;2.97;;
20697;SDS011;10508;50.956;4.640;2023-06-14T11:51:18;3.83;;;2.65;;
20697;SDS011;10508;50.956;4.640;2023-06-14T11:53:45;3.80;;;2.63;;
20697;SDS011;10508;50.956;4.640;2023-06-14T11:56:12;7.20;;;2.88;;
20697;SDS011;10508;50.956;4.640;2023-06-14T11:58:38;4.90;;;2.83;;
20697;SDS011;10508;50.956;4.640;2023-06-14T12:01:04;7.00;;;2.67;;
20697;SDS011;10508;50.956;4.640;2023-06-14T12:03:30;5.40;;;2.58;;
20697;SDS011;10508;50.956;4.640;2023-06-14T12:06:05;3.47;;;2.35;;
20697;SDS011;10508;50.956;4.640;2023-06-14T12:08:38;8.25;;;3.30;;
20697;SDS011;10508;50.956;4.640;2023-06-14T12:11:05;8.20;;;3.05;;
20697;SDS011;10508;50.956;4.640;2023-06-14T12:13:31;6.57;;;2.47;;
20697;SDS011;10508;50.956;4.640;2023-06-14T12:15:57;4.10;;;2.47;;
20697;SDS011;10508;50.956;4.640;2023-06-14T12:18:36;5.85;;;2.45;;
20697;SDS011;10508;50.956;4.640;2023-06-14T12:21:09;3.78;;;2.70;;
20697;SDS011;10508;50.956;4.640;2023-06-14T12:23:39;4.78;;;2.95;;
20697;SDS011;10508;50.956;4.640;2023-06-14T12:26:05;3.08;;;2.28;;
20697;SDS011;10508;50.956;4.640;2023-06-14T12:28:31;4.00;;;2.40;;
20697;SDS011;10508;50.956;4.640;2023-06-14T12:30:57;6.63;;;2.38;;
20697;SDS011;10508;50.956;4.640;2023-06-14T12:33:24;4.63;;;2.13;;
20697;SDS011;10508;50.956;4.640;2023-06-14T12:35:50;5.75;;;2.78;;
20697;SDS011;10508;50.956;4.640;2023-06-14T12:38:32;5.70;;;2.42;;
20697;SDS011;10508;50.956;4.640;2023-06-14T12:40:58;6.05;;;2.70;;
20697;SDS011;10508;50.956;4.640;2023-06-14T12:43:25;4.55;;;2.47;;
20697;SDS011;10508;50.956;4.640;2023-06-14T12:45:51;3.65;;;2.20;;
20697;SDS011;10508;50.956;4.640;2023-06-14T12:48:17;3.92;;;2.00;;
20697;SDS011;10508;50.956;4.640;2023-06-14T12:50:43;4.18;;;2.25;;
20697;SDS011;10508;50.956;4.640;2023-06-14T12:53:09;4.93;;;2.03;;
20697;SDS011;10508;50.956;4.640;2023-06-14T12:55:35;11.40;;;2.15;;
20697;SDS011;10508;50.956;4.640;2023-06-14T12:58:02;2.90;;;1.90;;
20697;SDS011;10508;50.956;4.640;2023-06-14T13:00:28;4.03;;;2.13;;
20697;SDS011;10508;50.956;4.640;2023-06-14T13:02:55;2.13;;;1.50;;
20697;SDS011;10508;50.956;4.640;2023-06-14T13:05:40;2.30;;;1.63;;
20697;SDS011;10508;50.956;4.640;2023-06-14T13:08:07;3.25;;;1.80;;
20697;SDS011;10508;50.956;4.640;2023-06-14T13:10:36;4.55;;;1.83;;
20697;SDS011;10508;50.956;4.640;2023-06-14T13:13:02;2.47;;;1.60;;
20697;SDS011;10508;50.956;4.640;2023-06-14T13:15:28;3.42;;;1.52;;
20697;SDS011;10508;50.956;4.640;2023-06-14T13:17:54;3.35;;;1.70;;
20697;SDS011;10508;50.956;4.640;2023-06-14T13:20:20;6.45;;;1.73;;
20697;SDS011;10508;50.956;4.640;2023-06-14T13:22:46;3.78;;;1.60;;
20697;SDS011;10508;50.956;4.640;2023-06-14T13:25:12;3.25;;;1.67;;
20697;SDS011;10508;50.956;4.640;2023-06-14T13:27:38;2.50;;;1.48;;
20697;SDS011;10508;50.956;4.640;2023-06-14T13:30:05;1.83;;;1.38;;
20697;SDS011;10508;50.956;4.640;2023-06-14T13:32:31;9.15;;;1.35;;
20697;SDS011;10508;50.956;4.640;2023-06-14T13:34:57;5.70;;;1.30;;
20697;SDS011;10508;50.956;4.640;2023-06-14T13:37:23;2.50;;;1.30;;
20697;SDS011;10508;50.956;4.640;2023-06-14T13:39:49;4.15;;;1.48;;
20697;SDS011;10508;50.956;4.640;2023-06-14T13:42:15;2.20;;;1.25;;
20697;SDS011;10508;50.956;4.640;2023-06-14T13:44:41;3.47;;;1.52;;
20697;SDS011;10508;50.956;4.640;2023-06-14T13:47:07;3.42;;;1.23;;
20697;SDS011;10508;50.956;4.640;2023-06-14T13:49:33;1.33;;;1.02;;
20697;SDS011;10508;50.956;4.640;2023-06-14T13:52:00;2.95;;;1.20;;
20697;SDS011;10508;50.956;4.640;2023-06-14T13:54:26;1.70;;;1.20;;
20697;SDS011;10508;50.956;4.640;2023-06-14T13:56:52;2.72;;;1.00;;
20697;SDS011;10508;50.956;4.640;2023-06-14T13:59:37;3.75;;;1.17;;
20697;SDS011;10508;50.956;4.640;2023-06-14T14:02:03;2.47;;;1.52;;
20697;SDS011;10508;50.956;4.640;2023-06-14T14:04:30;1.15;;;1.00;;
20697;SDS011;10508;50.956;4.640;2023-06-14T14:06:56;3.53;;;1.55;;
20697;SDS011;10508;50.956;4.640;2023-06-14T14:09:22;5.18;;;1.33;;
20697;SDS011;10508;50.956;4.640;2023-06-14T14:12:04;2.72;;;1.40;;
20697;SDS011;10508;50.956;4.640;2023-06-14T14:14:31;4.25;;;1.52;;
20697;SDS011;10508;50.956;4.640;2023-06-14T14:16:58;2.63;;;1.40;;
20697;SDS011;10508;50.956;4.640;2023-06-14T14:19:24;2.60;;;1.50;;
20697;SDS011;10508;50.956;4.640;2023-06-14T14:21:50;2.25;;;1.20;;
20697;SDS011;10508;50.956;4.640;2023-06-14T14:24:18;5.22;;;1.73;;
20697;SDS011;10508;50.956;4.640;2023-06-14T14:26:44;2.20;;;1.45;;
20697;SDS011;10508;50.956;4.640;2023-06-14T14:29:13;2.75;;;1.40;;
20697;SDS011;10508;50.956;4.640;2023-06-14T14:31:39;1.83;;;1.20;;
20697;SDS011;10508;50.956;4.640;2023-06-14T14:36:35;2.38;;;1.40;;
20697;SDS011;10508;50.956;4.640;2023-06-14T14:39:03;3.08;;;1.73;;
20697;SDS011;10508;50.956;4.640;2023-06-14T14:41:41;3.55;;;1.70;;
20697;SDS011;10508;50.956;4.640;2023-06-14T14:44:07;6.20;;;1.42;;
20697;SDS011;10508;50.956;4.640;2023-06-14T14:46:33;3.55;;;1.50;;
20697;SDS011;10508;50.956;4.640;2023-06-14T14:48:59;8.05;;;2.22;;
20697;SDS011;10508;50.956;4.640;2023-06-14T14:51:25;5.57;;;1.65;;
20697;SDS011;10508;50.956;4.640;2023-06-14T14:53:52;2.22;;;1.35;;
20697;SDS011;10508;50.956;4.640;2023-06-14T14:56:17;5.72;;;1.52;;